LJMB/MBX METAR and TAF weather

Enter ICAO airport designator
Station Type Date Time Source
LJMB METAR 2020/08/14 02:30 UTC NOAA

LJMB 140230Z AUTO 35003KT 9999 NSC 18/17 Q1015


Station Type Date Time Source
LJMB Decoded METAR 2020/08/14 02:30 UTC NOAA

Maribor / Slivnica, Slovenia (LJMB) 46-29N 015-41E 265M
Aug 13, 2020 - 10:30 PM EDT / 2020.08.14 0230 UTC
Wind: from the N (350 degrees) at 3 MPH (3 KT):0
Visibility: greater than 7 mile(s):0
Temperature: 64 F (18 C)
Dew Point: 62 F (17 C)
Relative Humidity: 93%
Pressure (altimeter): 29.97 in. Hg (1015 hPa)
ob: LJMB 140230Z AUTO 35003KT 9999 NSC 18/17 Q1015
cycle: 2

Station Type Date Time Source
LJMB TAF 2020/08/13 18:04 UTC NOAA

TAF LJMB 131700Z 1318/1418 19010KT 9999 FEW045
TEMPO 1318/1323 35015G25KT 5000 TSRA SCT040CB BKN060
BECMG 1320/1322 36005KT PROB30
TEMPO 1403/1406 0500 FG VV002 PROB30
TEMPO 1410/1418 VRB15KT 5000 TSRA SCT035CB BKN050

Example: see airport list